createdAt,value
2022-07-29T00:02:25.619Z,17.29
2022-07-29T00:04:52.224Z,17.29
2022-07-29T00:07:19.237Z,17.27
2022-07-29T00:09:52.024Z,17.24
2022-07-29T00:12:26.230Z,17.31
2022-07-29T00:14:57.677Z,17.41
2022-07-29T00:17:27.160Z,17.32
2022-07-29T00:19:53.661Z,17.10
2022-07-29T00:22:20.908Z,17.31
2022-07-29T00:24:50.253Z,17.29
2022-07-29T00:27:17.443Z,17.27
2022-07-29T00:29:43.932Z,17.30
2022-07-29T00:32:10.470Z,17.35
2022-07-29T00:34:55.660Z,17.25
2022-07-29T00:37:22.243Z,17.28
2022-07-29T00:39:51.473Z,17.30
2022-07-29T00:42:18.442Z,17.40
2022-07-29T00:44:44.894Z,17.43
2022-07-29T00:47:12.022Z,17.42
2022-07-29T00:49:41.062Z,17.34
2022-07-29T00:52:08.935Z,17.48
2022-07-29T00:54:37.172Z,17.39
2022-07-29T00:57:10.943Z,17.47
2022-07-29T00:59:37.464Z,17.51
2022-07-29T01:02:04.393Z,17.51
2022-07-29T01:04:32.002Z,17.44
2022-07-29T01:06:59.061Z,17.31
2022-07-29T01:09:45.165Z,17.43
2022-07-29T01:12:23.960Z,17.42
2022-07-29T01:14:51.493Z,17.33
2022-07-29T01:17:27.743Z,17.34
2022-07-29T01:20:24.749Z,17.40
2022-07-29T01:23:08.526Z,17.38
2022-07-29T01:25:55.768Z,17.49
2022-07-29T01:28:50.234Z,17.37
2022-07-29T01:31:26.976Z,17.21
2022-07-29T01:34:02.533Z,17.30
2022-07-29T01:36:38.113Z,17.35
2022-07-29T01:39:23.946Z,17.39
2022-07-29T01:42:22.195Z,17.22
2022-07-29T01:44:58.195Z,17.39
2022-07-29T01:47:30.730Z,17.40
2022-07-29T01:50:00.702Z,17.14
2022-07-29T01:52:34.863Z,17.32
2022-07-29T01:55:08.538Z,17.28
2022-07-29T01:57:38.398Z,17.42
2022-07-29T02:00:06.469Z,17.37
2022-07-29T02:02:34.394Z,17.51
2022-07-29T02:05:03.247Z,17.25
2022-07-29T02:07:33.057Z,17.22
2022-07-29T02:10:03.327Z,17.19
2022-07-29T02:12:31.928Z,17.24
2022-07-29T02:15:01.966Z,17.19
2022-07-29T02:17:32.453Z,17.34
2022-07-29T02:20:02.574Z,17.37
2022-07-29T02:22:30.995Z,17.30
2022-07-29T02:24:59.612Z,17.36
2022-07-29T02:27:29.398Z,17.41
2022-07-29T02:29:58.384Z,17.43
2022-07-29T02:32:27.065Z,17.41
2022-07-29T02:34:55.038Z,17.32
2022-07-29T02:37:22.380Z,17.37
2022-07-29T02:39:49.889Z,17.40
2022-07-29T02:42:19.399Z,17.33
2022-07-29T02:44:46.190Z,17.36
2022-07-29T02:47:41.806Z,17.36
2022-07-29T02:50:15.111Z,17.38
2022-07-29T02:52:47.836Z,17.30
2022-07-29T02:55:26.106Z,17.17
2022-07-29T02:58:03.427Z,17.17
2022-07-29T03:00:32.409Z,17.15
2022-07-29T03:03:07.756Z,17.18
2022-07-29T03:05:36.089Z,17.23
2022-07-29T03:08:05.920Z,17.24
2022-07-29T03:10:32.817Z,17.25
2022-07-29T03:12:59.983Z,17.23
2022-07-29T03:15:27.438Z,17.17
2022-07-29T03:17:54.699Z,17.13
2022-07-29T03:20:21.913Z,17.16
2022-07-29T03:22:48.643Z,17.05
2022-07-29T03:25:16.609Z,17.07
2022-07-29T03:27:43.978Z,17.04
2022-07-29T03:30:11.830Z,17.00
2022-07-29T03:32:38.657Z,16.98
2022-07-29T03:35:07.262Z,16.90
2022-07-29T03:37:34.467Z,16.79
2022-07-29T03:40:05.906Z,16.82
2022-07-29T03:42:34.647Z,16.83
2022-07-29T03:45:04.326Z,16.78
2022-07-29T03:47:49.590Z,16.85
2022-07-29T03:50:20.273Z,16.84
2022-07-29T03:52:47.569Z,16.86
2022-07-29T03:55:15.086Z,16.87
2022-07-29T03:57:42.972Z,16.82
2022-07-29T04:00:10.084Z,16.76
2022-07-29T04:02:38.847Z,16.79
2022-07-29T04:05:05.691Z,16.66
2022-07-29T04:07:32.151Z,16.71
2022-07-29T04:09:58.642Z,16.68
2022-07-29T04:12:25.770Z,16.73
2022-07-29T04:14:52.273Z,16.75
2022-07-29T04:17:18.746Z,16.61
2022-07-29T04:19:45.247Z,16.64
2022-07-29T04:22:11.813Z,16.71
2022-07-29T04:24:38.302Z,16.75
2022-07-29T04:27:04.759Z,16.62
2022-07-29T04:29:31.246Z,16.69
2022-07-29T04:31:57.729Z,16.71
2022-07-29T04:34:28.052Z,16.73
2022-07-29T04:36:55.110Z,16.69
2022-07-29T04:39:23.285Z,16.74
2022-07-29T04:41:51.161Z,16.73
2022-07-29T04:44:19.648Z,16.72
2022-07-29T04:46:46.398Z,16.75
2022-07-29T04:49:13.075Z,16.75
2022-07-29T04:51:39.818Z,16.82
2022-07-29T04:54:07.071Z,16.87
2022-07-29T04:56:33.547Z,16.89
2022-07-29T04:59:00.034Z,16.88
2022-07-29T05:01:26.654Z,16.90
2022-07-29T05:03:57.026Z,16.77
2022-07-29T05:06:26.507Z,16.63
2022-07-29T05:08:52.976Z,16.57
2022-07-29T05:11:22.377Z,16.67
2022-07-29T05:13:49.763Z,16.82
2022-07-29T05:16:16.323Z,16.74
2022-07-29T05:18:43.156Z,16.80
2022-07-29T05:21:09.796Z,16.89
2022-07-29T05:23:36.614Z,16.58
2022-07-29T05:26:03.208Z,16.78
2022-07-29T05:28:29.674Z,16.98
2022-07-29T05:30:56.258Z,16.97
2022-07-29T05:33:35.418Z,17.03
2022-07-29T05:36:06.452Z,16.99
2022-07-29T05:38:33.210Z,16.95
2022-07-29T05:41:00.529Z,16.91
2022-07-29T05:43:30.184Z,16.77
2022-07-29T05:45:57.617Z,16.61
2022-07-29T05:48:24.418Z,16.64
2022-07-29T05:50:50.946Z,16.64
2022-07-29T05:53:19.445Z,16.59
2022-07-29T05:55:51.003Z,16.31
2022-07-29T05:58:17.536Z,16.63
2022-07-29T06:00:44.213Z,16.71
2022-07-29T06:03:10.760Z,16.76
2022-07-29T06:05:37.275Z,16.77
2022-07-29T06:08:06.569Z,16.77
2022-07-29T06:10:33.216Z,16.87
2022-07-29T06:12:59.745Z,16.90
2022-07-29T06:15:26.404Z,16.90
2022-07-29T06:17:59.293Z,16.84
2022-07-29T06:20:27.822Z,16.93
2022-07-29T06:22:54.515Z,17.08
2022-07-29T06:25:21.131Z,17.09
2022-07-29T06:27:47.644Z,17.16
2022-07-29T06:30:14.576Z,17.11
2022-07-29T06:32:43.263Z,17.17
2022-07-29T06:35:36.174Z,17.31
2022-07-29T06:37:59.633Z,17.34
2022-07-29T06:40:45.407Z,17.34
2022-07-29T06:43:11.942Z,17.39
2022-07-29T06:45:42.182Z,17.28
2022-07-29T06:48:09.318Z,17.24
2022-07-29T06:50:35.847Z,17.21
2022-07-29T06:53:02.447Z,17.33
2022-07-29T06:55:28.907Z,17.33
2022-07-29T06:57:55.363Z,17.29
2022-07-29T07:00:21.920Z,17.24
2022-07-29T07:02:48.873Z,17.34
2022-07-29T07:05:15.507Z,17.45
2022-07-29T07:07:42.042Z,17.51
2022-07-29T07:10:08.843Z,17.58
2022-07-29T07:12:35.338Z,17.69
2022-07-29T07:15:01.845Z,17.68
2022-07-29T07:17:28.374Z,17.63
2022-07-29T07:19:54.821Z,17.76
2022-07-29T07:22:21.358Z,17.87
2022-07-29T07:24:47.788Z,17.94
2022-07-29T07:27:14.329Z,18.12
2022-07-29T07:29:42.137Z,18.35
2022-07-29T07:32:11.236Z,18.53
2022-07-29T07:34:38.963Z,18.69
2022-07-29T07:37:06.470Z,18.63
2022-07-29T07:39:33.106Z,18.62
2022-07-29T07:41:59.911Z,18.56
2022-07-29T07:44:26.518Z,18.61
2022-07-29T07:46:53.391Z,18.74
2022-07-29T07:49:21.551Z,18.71
2022-07-29T07:51:50.847Z,18.88
2022-07-29T07:54:20.652Z,19.06
2022-07-29T07:56:49.941Z,19.23
2022-07-29T07:59:20.065Z,19.31
2022-07-29T08:01:47.801Z,19.31
2022-07-29T08:04:27.716Z,19.31
2022-07-29T08:06:55.771Z,19.29
2022-07-29T08:09:29.213Z,19.31
2022-07-29T08:11:58.506Z,19.40
2022-07-29T08:14:25.680Z,19.63
2022-07-29T08:16:52.359Z,19.93
2022-07-29T08:19:19.273Z,20.20
2022-07-29T08:21:45.851Z,20.35
2022-07-29T08:24:44.761Z,20.43
2022-07-29T08:27:33.401Z,20.43
2022-07-29T08:29:58.556Z,20.29
2022-07-29T08:32:50.837Z,20.44
2022-07-29T08:35:14.228Z,20.52
2022-07-29T08:37:40.725Z,20.80
2022-07-29T08:40:07.549Z,20.90
2022-07-29T08:42:34.041Z,20.93
2022-07-29T08:45:00.657Z,20.88
2022-07-29T08:47:30.617Z,20.96
2022-07-29T08:49:57.258Z,20.80
2022-07-29T08:52:26.813Z,21.08
2022-07-29T08:54:54.309Z,21.17
2022-07-29T08:57:23.501Z,21.39
2022-07-29T08:59:53.321Z,21.31
2022-07-29T09:02:22.030Z,21.26
2022-07-29T09:04:49.758Z,21.28
2022-07-29T09:07:18.588Z,21.46
2022-07-29T09:09:45.988Z,21.47
2022-07-29T09:12:13.263Z,21.56
2022-07-29T09:14:56.258Z,21.56
2022-07-29T09:17:41.385Z,21.66
2022-07-29T09:20:13.680Z,21.69
2022-07-29T09:22:42.211Z,21.36
2022-07-29T09:25:09.581Z,21.51
2022-07-29T09:27:36.561Z,21.71
2022-07-29T09:30:05.337Z,21.80
2022-07-29T09:32:33.016Z,21.88
2022-07-29T09:35:20.184Z,21.66
2022-07-29T09:37:47.502Z,21.88
2022-07-29T09:40:19.110Z,21.75
2022-07-29T09:42:46.630Z,21.99
2022-07-29T09:45:26.584Z,22.03
2022-07-29T09:47:53.105Z,21.99
2022-07-29T09:50:24.918Z,22.18
2022-07-29T09:52:54.164Z,22.29
2022-07-29T09:55:20.824Z,22.35
2022-07-29T09:57:48.380Z,21.79
2022-07-29T10:00:18.733Z,22.06
2022-07-29T10:02:47.131Z,22.20
2022-07-29T10:05:21.821Z,22.25
2022-07-29T10:07:57.225Z,22.39
2022-07-29T10:10:26.733Z,22.53
2022-07-29T10:13:07.787Z,22.37
2022-07-29T10:15:39.455Z,22.27
2022-07-29T10:18:07.092Z,22.37
2022-07-29T10:20:33.741Z,22.30
2022-07-29T10:23:00.238Z,22.27
2022-07-29T10:25:28.937Z,22.32
2022-07-29T10:27:55.885Z,22.51
2022-07-29T10:30:25.337Z,22.47
2022-07-29T10:33:23.118Z,22.43
2022-07-29T10:36:08.329Z,22.65
2022-07-29T10:39:15.916Z,23.19
2022-07-29T10:42:03.634Z,23.71
2022-07-29T10:44:31.327Z,23.84
2022-07-29T10:46:58.561Z,24.22
2022-07-29T10:49:30.280Z,24.51
2022-07-29T10:52:07.355Z,24.82
2022-07-29T10:54:46.133Z,24.80
2022-07-29T10:57:15.728Z,25.34
2022-07-29T10:59:44.137Z,25.74
2022-07-29T11:02:46.533Z,26.25
2022-07-29T11:08:20.052Z,25.97
2022-07-29T11:10:49.863Z,26.06
2022-07-29T11:13:44.642Z,26.02
2022-07-29T11:16:13.795Z,26.04
2022-07-29T11:22:00.282Z,25.93
2022-07-29T11:24:33.199Z,25.67
2022-07-29T11:27:23.332Z,25.04
2022-07-29T11:30:03.332Z,25.04
2022-07-29T11:32:48.450Z,24.86
2022-07-29T11:35:38.510Z,25.04
2022-07-29T11:38:31.766Z,25.18
2022-07-29T11:41:27.545Z,25.18
2022-07-29T11:43:56.835Z,25.18
2022-07-29T11:46:49.649Z,25.51
2022-07-29T11:49:32.147Z,25.58
2022-07-29T11:52:02.399Z,26.20
2022-07-29T11:54:38.887Z,26.53
2022-07-29T11:57:22.605Z,26.71
2022-07-29T11:59:49.211Z,26.95
2022-07-29T12:02:37.121Z,27.64
2022-07-29T12:05:10.665Z,28.20
2022-07-29T12:07:39.432Z,28.38
2022-07-29T12:10:08.299Z,28.54
2022-07-29T12:12:39.532Z,28.86
2022-07-29T12:15:25.001Z,29.48
2022-07-29T12:18:14.003Z,29.69
2022-07-29T12:20:40.767Z,29.27
2022-07-29T12:23:13.190Z,29.54
2022-07-29T12:25:41.450Z,29.51
2022-07-29T12:28:14.121Z,29.89
2022-07-29T12:30:44.995Z,30.09
2022-07-29T12:33:18.485Z,30.31
2022-07-29T12:35:58.067Z,30.03
2022-07-29T12:38:30.552Z,29.12
2022-07-29T12:40:57.454Z,29.19
2022-07-29T12:43:25.801Z,29.54
2022-07-29T12:45:54.861Z,29.77
2022-07-29T12:48:38.734Z,30.17
2022-07-29T12:51:07.092Z,30.42
2022-07-29T12:53:34.029Z,30.54
2022-07-29T12:56:15.580Z,30.13
2022-07-29T12:58:51.426Z,30.53
2022-07-29T13:01:20.312Z,31.05
2022-07-29T13:03:57.391Z,31.36
2022-07-29T13:06:46.185Z,31.17
2022-07-29T13:09:23.325Z,31.22
2022-07-29T13:11:53.735Z,31.46
2022-07-29T13:14:54.794Z,31.54
2022-07-29T13:17:28.620Z,31.89
2022-07-29T13:20:09.721Z,31.36
2022-07-29T13:22:36.838Z,31.56
2022-07-29T13:25:04.104Z,31.66
2022-07-29T13:27:35.316Z,31.28
2022-07-29T13:30:05.704Z,31.26
2022-07-29T13:32:35.391Z,31.09
2022-07-29T13:35:05.730Z,30.86
2022-07-29T13:37:35.227Z,30.74
2022-07-29T13:40:04.337Z,30.89
2022-07-29T13:42:32.264Z,30.17
2022-07-29T13:45:00.482Z,30.38
2022-07-29T13:47:32.246Z,30.88
2022-07-29T13:50:00.626Z,31.14
2022-07-29T13:52:27.166Z,31.07
2022-07-29T13:54:53.646Z,30.78
2022-07-29T13:57:20.179Z,30.79
2022-07-29T13:59:50.532Z,30.85
2022-07-29T14:02:20.032Z,31.11
2022-07-29T14:04:47.084Z,31.37
2022-07-29T14:07:16.221Z,30.94
2022-07-29T14:09:43.312Z,31.04
2022-07-29T14:12:10.309Z,31.35
2022-07-29T14:14:37.648Z,31.33
2022-07-29T14:17:07.179Z,31.51
2022-07-29T14:19:36.517Z,31.58
2022-07-29T14:22:04.713Z,31.47
2022-07-29T14:24:32.124Z,31.53
2022-07-29T14:26:59.050Z,31.51
2022-07-29T14:29:35.250Z,31.55
2022-07-29T14:32:08.709Z,31.49
2022-07-29T14:34:36.276Z,31.52
2022-07-29T14:37:03.804Z,31.54
2022-07-29T14:39:31.628Z,31.55
2022-07-29T14:41:59.187Z,31.76
2022-07-29T14:44:31.779Z,31.47
2022-07-29T14:47:00.451Z,31.43
2022-07-29T14:49:27.883Z,30.86
2022-07-29T14:51:54.645Z,30.31
2022-07-29T14:54:21.272Z,29.91
2022-07-29T14:56:50.208Z,30.29
2022-07-29T14:59:17.322Z,29.76
2022-07-29T15:01:44.178Z,29.78
2022-07-29T15:04:10.672Z,30.01
2022-07-29T15:06:38.794Z,29.57
2022-07-29T15:09:05.502Z,29.38
2022-07-29T15:11:33.486Z,29.73
2022-07-29T15:14:05.713Z,29.67
2022-07-29T15:16:32.323Z,29.60
2022-07-29T15:19:01.082Z,29.63
2022-07-29T15:21:28.473Z,29.30
2022-07-29T15:23:54.965Z,29.13
2022-07-29T15:26:21.951Z,28.92
2022-07-29T15:28:48.835Z,28.90
2022-07-29T15:31:15.452Z,28.92
2022-07-29T15:33:42.057Z,28.76
2022-07-29T15:36:08.828Z,28.70
2022-07-29T15:38:35.358Z,28.70
2022-07-29T15:41:08.218Z,28.73
2022-07-29T15:43:36.114Z,28.56
2022-07-29T15:46:21.410Z,28.31
2022-07-29T15:48:48.124Z,28.27
2022-07-29T15:51:15.148Z,28.20
2022-07-29T15:53:41.674Z,28.21
2022-07-29T15:56:08.132Z,28.26
2022-07-29T15:58:34.590Z,28.21
2022-07-29T16:01:01.123Z,28.08
2022-07-29T16:03:27.656Z,28.05
2022-07-29T16:05:54.122Z,28.17
2022-07-29T16:08:20.587Z,28.02
2022-07-29T16:10:47.146Z,28.05
2022-07-29T16:13:16.992Z,27.70
2022-07-29T16:16:02.676Z,27.56
2022-07-29T16:18:30.376Z,27.58
2022-07-29T16:20:57.700Z,27.65
2022-07-29T16:23:24.718Z,27.64
2022-07-29T16:25:59.688Z,27.64
2022-07-29T16:28:26.398Z,27.58
2022-07-29T16:30:52.925Z,27.55
2022-07-29T16:33:19.374Z,27.48
2022-07-29T16:35:45.886Z,27.49
2022-07-29T16:38:12.346Z,27.35
2022-07-29T16:40:38.917Z,27.34
2022-07-29T16:43:05.401Z,27.20
2022-07-29T16:45:44.409Z,27.13
2022-07-29T16:48:12.540Z,27.18
2022-07-29T16:50:39.969Z,27.09
2022-07-29T16:53:06.874Z,27.21
2022-07-29T16:55:36.113Z,27.02
2022-07-29T16:58:02.617Z,27.27
2022-07-29T17:00:29.327Z,27.26
2022-07-29T17:02:55.896Z,27.14
2022-07-29T17:05:22.692Z,27.13
2022-07-29T17:07:49.877Z,27.11
2022-07-29T17:10:16.459Z,27.03
2022-07-29T17:12:43.099Z,27.02
2022-07-29T17:15:14.385Z,27.00
2022-07-29T17:17:55.369Z,27.01
2022-07-29T17:20:23.485Z,26.94
2022-07-29T17:22:49.965Z,26.84
2022-07-29T17:25:21.103Z,26.78
2022-07-29T17:27:49.669Z,26.73
2022-07-29T17:30:16.899Z,26.65
2022-07-29T17:32:43.352Z,26.56
2022-07-29T17:35:29.026Z,26.53
2022-07-29T17:37:55.877Z,26.49
2022-07-29T17:40:22.578Z,26.39
2022-07-29T17:42:49.197Z,26.33
2022-07-29T17:45:18.997Z,26.29
2022-07-29T17:47:45.558Z,26.31
2022-07-29T17:50:12.154Z,26.10
2022-07-29T17:52:39.097Z,26.11
2022-07-29T17:55:06.959Z,25.97
2022-07-29T17:57:34.149Z,25.92
2022-07-29T18:00:01.046Z,25.83
2022-07-29T18:02:27.821Z,25.78
2022-07-29T18:04:55.121Z,25.69
2022-07-29T18:07:21.670Z,25.46
2022-07-29T18:09:48.141Z,25.48
2022-07-29T18:12:14.655Z,25.34
2022-07-29T18:14:41.180Z,25.31
2022-07-29T18:17:07.969Z,25.28
2022-07-29T18:19:34.393Z,25.20
2022-07-29T18:22:05.243Z,25.05
2022-07-29T18:24:35.788Z,24.91
2022-07-29T18:27:04.811Z,24.86
2022-07-29T18:29:31.316Z,24.75
2022-07-29T18:31:59.802Z,24.70
2022-07-29T18:34:26.329Z,24.53
2022-07-29T18:36:52.926Z,24.61
2022-07-29T18:39:21.123Z,24.60
2022-07-29T18:41:50.137Z,24.56
2022-07-29T18:44:18.796Z,24.51
2022-07-29T18:46:47.411Z,24.48
2022-07-29T18:49:14.765Z,24.41
2022-07-29T18:51:41.392Z,24.41
2022-07-29T18:54:09.132Z,24.32
2022-07-29T18:56:35.598Z,24.26
2022-07-29T18:59:02.960Z,24.24
2022-07-29T19:01:31.809Z,24.17
2022-07-29T19:03:59.228Z,24.18
2022-07-29T19:06:26.215Z,24.09
2022-07-29T19:08:53.222Z,24.02
2022-07-29T19:11:22.101Z,23.97
2022-07-29T19:13:51.414Z,23.90
2022-07-29T19:16:18.385Z,23.84
2022-07-29T19:18:47.919Z,23.68
2022-07-29T19:21:14.407Z,23.65
2022-07-29T19:24:04.175Z,23.62
2022-07-29T19:26:28.514Z,23.56
2022-07-29T19:28:55.255Z,23.54
2022-07-29T19:31:21.795Z,23.47
2022-07-29T19:33:48.392Z,23.43
2022-07-29T19:36:14.983Z,23.37
2022-07-29T19:38:41.497Z,23.28
2022-07-29T19:41:08.500Z,23.17
2022-07-29T19:43:50.994Z,23.07
2022-07-29T19:46:20.870Z,23.03
2022-07-29T19:48:47.937Z,22.88
2022-07-29T19:51:14.541Z,22.90
2022-07-29T19:53:41.077Z,22.78
2022-07-29T19:56:08.900Z,22.73
2022-07-29T19:58:36.163Z,22.69
2022-07-29T20:01:10.602Z,22.66
2022-07-29T20:03:44.688Z,22.60
2022-07-29T20:06:11.377Z,22.58
2022-07-29T20:08:38.219Z,22.55
2022-07-29T20:11:05.253Z,22.51
2022-07-29T20:13:33.535Z,22.46
2022-07-29T20:16:01.126Z,22.43
2022-07-29T20:18:27.778Z,22.41
2022-07-29T20:20:56.149Z,22.39
2022-07-29T20:23:23.262Z,22.34
2022-07-29T20:25:49.992Z,22.21
2022-07-29T20:28:16.521Z,22.14
2022-07-29T20:30:43.146Z,22.10
2022-07-29T20:33:09.757Z,22.03
2022-07-29T20:35:36.426Z,22.00
2022-07-29T20:38:05.278Z,21.97
2022-07-29T20:40:35.716Z,21.91
2022-07-29T20:43:02.178Z,21.85
2022-07-29T20:45:38.596Z,21.84
2022-07-29T20:48:10.522Z,21.76
2022-07-29T20:50:37.370Z,21.65
2022-07-29T20:53:03.845Z,21.61
2022-07-29T20:55:33.213Z,21.61
2022-07-29T20:57:59.777Z,21.59
2022-07-29T21:00:26.446Z,21.56
2022-07-29T21:02:52.963Z,21.54
2022-07-29T21:05:19.650Z,21.47
2022-07-29T21:07:46.168Z,21.41
2022-07-29T21:10:14.076Z,21.38
2022-07-29T21:12:41.813Z,21.33
2022-07-29T21:15:09.013Z,21.23
2022-07-29T21:17:36.108Z,21.24
2022-07-29T21:20:06.624Z,21.22
2022-07-29T21:22:33.155Z,21.14
2022-07-29T21:24:59.782Z,21.11
2022-07-29T21:27:44.901Z,21.09
2022-07-29T21:30:11.478Z,21.00
2022-07-29T21:32:38.179Z,20.96
2022-07-29T21:35:18.268Z,20.89
2022-07-29T21:37:51.763Z,20.81
2022-07-29T21:40:18.313Z,20.77
2022-07-29T21:42:44.844Z,20.75
2022-07-29T21:45:13.400Z,20.75
2022-07-29T21:47:39.868Z,20.74
2022-07-29T21:50:06.849Z,20.68
2022-07-29T21:52:33.286Z,20.61
2022-07-29T21:54:59.947Z,20.52
2022-07-29T21:57:26.516Z,20.51
2022-07-29T21:59:59.523Z,20.46
2022-07-29T22:02:28.893Z,20.46
2022-07-29T22:04:55.444Z,20.46
2022-07-29T22:07:21.950Z,20.45
2022-07-29T22:09:48.467Z,20.43
2022-07-29T22:12:15.010Z,20.41
2022-07-29T22:14:42.049Z,20.41
2022-07-29T22:17:08.600Z,20.41
2022-07-29T22:19:35.111Z,20.33
2022-07-29T22:22:01.537Z,20.26
2022-07-29T22:24:27.997Z,20.25
2022-07-29T22:26:54.511Z,20.18
2022-07-29T22:29:21.022Z,20.14
2022-07-29T22:31:47.481Z,20.11
2022-07-29T22:34:14.290Z,20.06
2022-07-29T22:36:41.166Z,20.04
2022-07-29T22:39:07.849Z,20.05
2022-07-29T22:41:34.738Z,20.02
2022-07-29T22:44:01.287Z,20.02
2022-07-29T22:46:27.859Z,19.98
2022-07-29T22:48:54.404Z,19.97
2022-07-29T22:51:21.004Z,19.90
2022-07-29T22:53:47.473Z,19.90
2022-07-29T22:56:13.957Z,19.81
2022-07-29T22:58:40.451Z,19.85
2022-07-29T23:01:07.063Z,19.80
2022-07-29T23:03:33.826Z,19.74
2022-07-29T23:06:00.394Z,19.69
2022-07-29T23:08:26.857Z,19.66
2022-07-29T23:10:53.405Z,19.63
2022-07-29T23:13:19.848Z,19.59
2022-07-29T23:15:46.347Z,19.57
2022-07-29T23:18:12.937Z,19.53
2022-07-29T23:20:39.581Z,19.51
2022-07-29T23:23:06.105Z,19.47
2022-07-29T23:25:32.673Z,19.42
2022-07-29T23:27:59.145Z,19.38
2022-07-29T23:30:25.782Z,19.33
2022-07-29T23:32:55.865Z,19.35
2022-07-29T23:35:23.339Z,19.33
2022-07-29T23:37:49.886Z,19.29
2022-07-29T23:40:16.545Z,19.24
2022-07-29T23:42:43.490Z,19.17
2022-07-29T23:45:11.545Z,19.11
2022-07-29T23:47:38.113Z,19.08
2022-07-29T23:50:09.338Z,19.03
2022-07-29T23:52:35.773Z,19.00
2022-07-29T23:55:36.371Z,18.96
2022-07-29T23:57:48.819Z,18.88
